Time;durP1;ratioP1;P1;durP2;ratioP2;P2;SDS_P1;SDS_P2;PMS_P1;PMS_P2;Temp;Humidity;BMP_temperature;BMP_pressure;BME280_temperature;BME280_humidity;BME280_pressure;Samples;Min_cycle;Max_cycle;Signal;HPM_P1;HPM_P2
2023/02/20 00:00:40;;;;;;;6.65;2.08;;;21.00;43.40;;;;;;5028939;28;20057;-66
2023/02/20 00:03:08;;;;;;;4.60;1.58;;;21.00;43.40;;;;;;5027023;28;20041;-67
2023/02/20 00:05:37;;;;;;;5.88;2.13;;;21.00;43.40;;;;;;5031813;28;20581;-66
2023/02/20 00:08:06;;;;;;;3.28;1.60;;;21.00;43.40;;;;;;5028398;28;20057;-66
2023/02/20 00:10:33;;;;;;;6.93;2.00;;;21.00;43.30;;;;;;5027740;28;20077;-67
2023/02/20 00:13:00;;;;;;;3.35;1.55;;;21.00;43.30;;;;;;5027974;28;20069;-67
2023/02/20 00:15:29;;;;;;;2.47;1.80;;;21.00;43.30;;;;;;5040098;28;20368;-67
2023/02/20 00:17:57;;;;;;;5.32;2.13;;;21.00;43.30;;;;;;5047841;28;20118;-66
2023/02/20 00:20:25;;;;;;;3.42;1.92;;;21.00;43.30;;;;;;5035689;28;20064;-65
2023/02/20 00:22:53;;;;;;;4.65;2.28;;;21.00;43.30;;;;;;5027690;28;20045;-68
2023/02/20 00:25:21;;;;;;;6.13;1.70;;;21.00;43.30;;;;;;5027278;28;20065;-68
2023/02/20 00:27:50;;;;;;;4.97;3.33;;;21.00;43.40;;;;;;5027660;28;20073;-68
2023/02/20 00:30:24;;;;;;;4.43;1.88;;;21.00;43.40;;;;;;5027149;28;20072;-67
2023/02/20 00:32:54;;;;;;;5.30;1.75;;;20.90;43.30;;;;;;5026386;28;20076;-68
2023/02/20 00:35:22;;;;;;;4.72;2.13;;;20.90;43.40;;;;;;5028072;28;20049;-66
2023/02/20 00:37:52;;;;;;;5.93;2.58;;;20.90;43.40;;;;;;5025942;28;20107;-68
2023/02/20 00:40:23;;;;;;;5.05;1.52;;;20.90;43.40;;;;;;5025731;28;20227;-68
2023/02/20 00:42:51;;;;;;;3.78;1.70;;;20.90;43.40;;;;;;5027756;28;20049;-62
2023/02/20 00:45:19;;;;;;;3.20;1.52;;;20.90;43.40;;;;;;5027622;28;20087;-67
2023/02/20 00:47:46;;;;;;;2.17;1.60;;;20.90;43.30;;;;;;5043721;28;20049;-68
2023/02/20 00:50:16;;;;;;;2.67;1.58;;;20.90;44.00;;;;;;5045709;28;20509;-64
2023/02/20 00:52:45;;;;;;;4.47;1.35;;;20.90;43.40;;;;;;5037994;28;20053;-68
2023/02/20 00:55:14;;;;;;;2.10;1.10;;;20.90;43.40;;;;;;5059412;28;20045;-68
2023/02/20 00:57:43;;;;;;;1.95;1.65;;;20.80;43.40;;;;;;5027553;28;20045;-68
2023/02/20 01:00:18;;;;;;;5.25;1.52;;;20.80;43.40;;;;;;5027438;28;20107;-68
2023/02/20 01:02:46;;;;;;;;;;;20.80;43.40;;;;;;5026318;28;20132;-68
2023/02/20 01:05:13;;;;;;;4.93;1.83;;;20.80;43.40;;;;;;5027412;28;19929;-68
2023/02/20 01:07:41;;;;;;;2.22;1.13;;;20.70;44.10;;;;;;5026928;28;20049;-67
2023/02/20 01:10:09;;;;;;;4.35;1.02;;;20.70;43.50;;;;;;5027366;28;20057;-67
2023/02/20 01:12:40;;;;;;;3.55;1.77;;;20.80;43.50;;;;;;5025806;28;20086;-67
2023/02/20 01:15:15;;;;;;;1.83;1.15;;;20.80;43.50;;;;;;5027124;28;20064;-68
2023/02/20 01:17:43;;;;;;;2.58;0.93;;;20.70;43.40;;;;;;5027111;28;20521;-68
2023/02/20 01:20:11;;;;;;;3.35;1.23;;;20.70;43.50;;;;;;5027146;28;20084;-67
2023/02/20 01:22:41;;;;;;;2.80;1.00;;;20.70;43.50;;;;;;5026600;28;20168;-68
2023/02/20 01:25:10;;;;;;;4.55;1.75;;;20.70;43.50;;;;;;5027022;28;20077;-69
2023/02/20 01:27:37;;;;;;;5.43;0.90;;;20.70;43.50;;;;;;5025567;28;20079;-67
2023/02/20 01:30:05;;;;;;;2.80;1.58;;;20.70;44.00;;;;;;5027217;28;20046;-68
2023/02/20 01:32:34;;;;;;;1.83;1.17;;;20.70;43.40;;;;;;5025473;28;20042;-67
2023/02/20 01:35:01;;;;;;;1.23;0.52;;;20.70;43.50;;;;;;5025152;28;20048;-68
2023/02/20 01:37:31;;;;;;;3.95;1.17;;;20.70;43.50;;;;;;5026296;28;20068;-68
2023/02/20 01:39:59;;;;;;;2.78;1.27;;;20.70;43.50;;;;;;5026761;28;20045;-68
2023/02/20 01:42:32;;;;;;;1.95;1.13;;;20.70;43.50;;;;;;5024331;28;20045;-68
2023/02/20 01:45:28;;;;;;;2.47;0.95;;;20.70;43.40;;;;;;5025056;28;20148;-67
2023/02/20 01:47:57;;;;;;;;;;;20.80;43.50;;;;;;5026791;28;20049;-67
2023/02/20 01:50:29;;;;;;;5.07;0.70;;;20.60;43.50;;;;;;5026687;28;19925;-67
2023/02/20 01:53:02;;;;;;;2.10;1.08;;;20.60;43.60;;;;;;5005108;28;20052;-67
2023/02/20 01:55:35;;;;;;;2.97;0.70;;;20.60;43.60;;;;;;5005498;28;20073;-68
2023/02/20 01:58:09;;;;;;;3.10;0.52;;;20.60;43.60;;;;;;5005248;28;20045;-67
2023/02/20 02:00:37;;;;;;;2.25;0.70;;;20.60;43.60;;;;;;5021746;28;20221;-68
2023/02/20 02:03:09;;;;;;;1.88;0.60;;;20.60;43.60;;;;;;5004391;28;20072;-68
2023/02/20 02:05:37;;;;;;;2.90;0.85;;;20.70;43.60;;;;;;5006350;28;20042;-67
2023/02/20 02:08:09;;;;;;;1.05;0.52;;;20.60;43.60;;;;;;5006421;28;20137;-67
2023/02/20 02:10:46;;;;;;;1.67;0.70;;;20.60;43.60;;;;;;5006456;28;20046;-68
2023/02/20 02:13:14;;;;;;;2.80;0.68;;;20.70;43.50;;;;;;5008058;28;20461;-67
2023/02/20 02:15:42;;;;;;;3.33;0.95;;;20.60;43.50;;;;;;5042414;28;20041;-68
2023/02/20 02:18:31;;;;;;;3.13;0.98;;;20.60;43.50;;;;;;5026717;28;20049;-67
2023/02/20 02:21:23;;;;;;;1.40;0.50;;;20.60;43.50;;;;;;5025287;28;20595;-67
2023/02/20 02:24:24;;;;;;;1.75;1.33;;;20.60;43.50;;;;;;5019267;28;20127;-68
2023/02/20 02:27:26;;;;;;;4.63;0.75;;;20.60;43.60;;;;;;5024568;28;20538;-67
2023/02/20 02:30:19;;;;;;;1.63;0.70;;;20.60;43.60;;;;;;5024720;28;20079;-67
2023/02/20 02:33:24;;;;;;;3.25;0.60;;;20.60;43.70;;;;;;5003259;28;20881;-67
2023/02/20 02:36:22;;;;;;;2.33;0.50;;;20.60;43.70;;;;;;4944736;29;20434;-68
2023/02/20 02:38:56;;;;;;;2.30;0.30;;;20.60;43.70;;;;;;4913008;29;20055;-68
2023/02/20 02:41:32;;;;;;;2.75;0.40;;;20.50;43.70;;;;;;4929051;29;20059;-68
2023/02/20 02:44:00;;;;;;;;;;;20.50;43.70;;;;;;4929522;29;20130;-66
2023/02/20 02:46:35;;;;;;;1.77;0.82;;;20.50;43.60;;;;;;4941534;29;20560;-67
2023/02/20 02:49:07;;;;;;;3.97;1.10;;;20.40;43.70;;;;;;4960738;28;20563;-67
2023/02/20 02:51:44;;;;;;;1.17;1.08;;;20.50;43.70;;;;;;4961260;28;20598;-66
2023/02/20 02:54:13;;;;;;;2.25;0.55;;;20.50;43.80;;;;;;4928372;29;20048;-67
2023/02/20 02:56:44;;;;;;;2.42;0.70;;;20.50;43.80;;;;;;4929902;29;20056;-67
2023/02/20 02:59:15;;;;;;;2.58;0.70;;;20.50;43.70;;;;;;4945647;29;20948;-67
2023/02/20 03:01:49;;;;;;;1.63;0.82;;;20.50;43.80;;;;;;4929776;29;20051;-67
2023/02/20 03:04:22;;;;;;;;;;;20.50;43.70;;;;;;4945615;29;20535;-67
2023/02/20 03:06:55;;;;;;;1.35;0.55;;;20.40;43.60;;;;;;4929736;29;19927;-67
2023/02/20 03:09:51;;;;;;;2.25;1.38;;;20.40;43.80;;;;;;4942877;28;20098;-66
2023/02/20 03:12:49;;;;;;;2.03;0.40;;;20.40;43.80;;;;;;4982249;28;20078;-67
2023/02/20 03:15:34;;;;;;;3.67;0.80;;;20.40;43.80;;;;;;5024812;28;20061;-67
2023/02/20 03:18:14;;;;;;;3.58;0.40;;;20.40;43.80;;;;;;5044384;28;20386;-66
2023/02/20 03:20:45;;;;;;;3.47;0.40;;;20.40;43.70;;;;;;5044776;28;20124;-68
2023/02/20 03:23:18;;;;;;;2.78;0.52;;;20.50;43.80;;;;;;5028883;28;20521;-67
2023/02/20 03:25:50;;;;;;;1.40;0.40;;;20.50;43.70;;;;;;5029124;28;20449;-67
2023/02/20 03:28:22;;;;;;;2.50;0.73;;;20.40;43.70;;;;;;5027975;28;20115;-67
2023/02/20 03:30:55;;;;;;;2.00;0.55;;;20.40;43.70;;;;;;5028177;28;20045;-67
2023/02/20 03:44:58;;;;;;;1.90;0.30;;;20.40;43.70;;;;;;5027332;28;20321;-66
2023/02/20 03:47:28;;;;;;;2.95;0.63;;;20.30;43.70;;;;;;5026935;28;20049;-67
2023/02/20 03:49:57;;;;;;;0.82;0.70;;;20.40;43.70;;;;;;5043787;28;20053;-67
2023/02/20 03:52:23;;;;;;;3.30;0.50;;;20.40;43.70;;;;;;5027445;28;20053;-68
2023/02/20 03:54:52;;;;;;;1.00;0.32;;;20.40;43.70;;;;;;5027211;28;20064;-67
2023/02/20 03:57:24;;;;;;;1.20;0.57;;;20.40;43.70;;;;;;5028375;28;20140;-67
2023/02/20 03:59:58;;;;;;;4.90;0.47;;;20.40;43.70;;;;;;5026865;28;20052;-67
2023/02/20 04:02:32;;;;;;;2.70;0.40;;;20.40;43.70;;;;;;5026137;28;20056;-67
2023/02/20 04:05:05;;;;;;;4.10;0.32;;;20.40;43.80;;;;;;5027694;28;20153;-67
2023/02/20 04:07:39;;;;;;;3.85;0.90;;;20.40;43.80;;;;;;5026725;28;20111;-67
2023/02/20 04:10:13;;;;;;;2.45;0.68;;;20.40;43.80;;;;;;5026261;28;20132;-67
2023/02/20 04:12:44;;;;;;;1.90;0.40;;;20.30;43.80;;;;;;5043402;28;20061;-67
2023/02/20 04:15:12;;;;;;;0.68;0.38;;;20.30;43.80;;;;;;5043014;28;20045;-67
2023/02/20 04:17:47;;;;;;;2.38;0.93;;;20.30;43.90;;;;;;5026430;28;20047;-68
2023/02/20 04:20:15;;;;;;;1.15;0.30;;;20.30;43.90;;;;;;5026112;28;20041;-67
2023/02/20 04:22:53;;;;;;;3.00;0.80;;;20.20;43.90;;;;;;5030856;28;20045;-67
2023/02/20 04:25:39;;;;;;;1.85;0.47;;;20.30;44.00;;;;;;5026088;28;20302;-69
2023/02/20 04:28:08;;;;;;;0.95;0.30;;;20.30;44.00;;;;;;5027743;28;20041;-68
2023/02/20 04:30:46;;;;;;;0.50;0.20;;;20.20;44.10;;;;;;5026126;28;20049;-68
2023/02/20 04:33:15;;;;;;;1.75;0.38;;;20.30;44.10;;;;;;5026176;28;20052;-68
2023/02/20 04:35:43;;;;;;;1.40;0.30;;;20.20;44.00;;;;;;5026000;28;20520;-69
2023/02/20 04:38:11;;;;;;;1.65;0.30;;;20.30;44.00;;;;;;5026024;28;20045;-68
2023/02/20 04:40:40;;;;;;;1.77;0.43;;;20.20;44.00;;;;;;5025933;28;20038;-68
2023/02/20 04:43:08;;;;;;;2.72;0.82;;;20.30;44.00;;;;;;5027217;28;20049;-68
2023/02/20 04:45:35;;;;;;;1.13;0.28;;;20.30;44.10;;;;;;5025290;28;20075;-69
2023/02/20 04:48:03;;;;;;;3.92;0.50;;;20.20;44.00;;;;;;5025903;28;20049;-67
2023/02/20 04:50:32;;;;;;;1.48;0.55;;;20.20;44.00;;;;;;5008698;28;20532;-68
2023/02/20 04:53:00;;;;;;;0.40;0.20;;;20.20;44.10;;;;;;5032941;28;20053;-68
2023/02/20 04:55:28;;;;;;;1.35;0.20;;;20.20;44.10;;;;;;5027200;28;20040;-68
2023/02/20 04:57:59;;;;;;;4.03;0.50;;;20.20;44.10;;;;;;5058940;28;20052;-67
2023/02/20 05:00:31;;;;;;;2.75;0.50;;;20.20;44.10;;;;;;5025231;28;20054;-67
2023/02/20 05:02:58;;;;;;;2.40;0.73;;;20.20;44.10;;;;;;5025373;28;20084;-66
2023/02/20 05:05:28;;;;;;;0.40;0.20;;;20.20;44.10;;;;;;5026874;28;20049;-67
2023/02/20 05:07:55;;;;;;;2.58;1.00;;;20.30;44.20;;;;;;5026647;28;20041;-66
2023/02/20 05:10:24;;;;;;;5.00;0.32;;;20.20;44.10;;;;;;5025419;28;20124;-67
2023/02/20 05:12:52;;;;;;;0.52;0.20;;;20.20;44.10;;;;;;5026972;28;20886;-67
2023/02/20 05:15:20;;;;;;;2.10;0.32;;;20.20;44.20;;;;;;5026395;28;20052;-68
2023/02/20 05:17:48;;;;;;;2.70;1.25;;;20.20;44.20;;;;;;5026460;28;20130;-67
2023/02/20 05:20:17;;;;;;;1.00;0.63;;;20.20;44.20;;;;;;5026466;28;20046;-65
2023/02/20 05:22:45;;;;;;;3.75;0.85;;;20.20;44.20;;;;;;5026383;28;20053;-67
2023/02/20 05:25:13;;;;;;;1.27;0.30;;;20.20;44.20;;;;;;5026139;28;20123;-67
2023/02/20 05:27:41;;;;;;;1.05;0.40;;;20.20;44.20;;;;;;5026388;28;20053;-66
2023/02/20 05:30:09;;;;;;;3.05;0.50;;;20.20;44.20;;;;;;5025961;28;20127;-67
2023/02/20 05:32:38;;;;;;;4.70;0.77;;;20.20;44.30;;;;;;5026447;28;20140;-67
2023/02/20 05:35:06;;;;;;;3.97;0.50;;;20.20;44.30;;;;;;5026126;28;20133;-67
2023/02/20 05:37:33;;;;;;;2.97;0.40;;;20.20;44.30;;;;;;5026020;28;20496;-68
2023/02/20 05:40:00;;;;;;;2.15;1.35;;;20.20;44.30;;;;;;5026002;28;20123;-68
2023/02/20 05:42:27;;;;;;;1.38;0.60;;;20.20;44.30;;;;;;5025678;28;20042;-67
2023/02/20 05:44:54;;;;;;;1.92;0.95;;;20.20;44.30;;;;;;5025413;28;20056;-66
2023/02/20 05:47:21;;;;;;;0.47;0.40;;;20.20;44.30;;;;;;5025924;28;20102;-68
2023/02/20 05:49:50;;;;;;;2.25;0.50;;;20.20;44.30;;;;;;5026158;28;20053;-68
2023/02/20 05:52:17;;;;;;;4.05;0.70;;;20.20;44.30;;;;;;5025663;28;20484;-67
2023/02/20 05:54:47;;;;;;;2.42;0.50;;;20.20;44.30;;;;;;5025949;28;20053;-68
2023/02/20 05:57:16;;;;;;;1.25;0.40;;;20.20;44.30;;;;;;5024185;28;20047;-69
2023/02/20 05:59:43;;;;;;;2.60;0.73;;;20.20;44.30;;;;;;5025568;28;20577;-68
2023/02/20 06:02:10;;;;;;;2.10;0.35;;;20.20;44.40;;;;;;5025683;28;20150;-67
2023/02/20 06:04:37;;;;;;;1.90;0.32;;;20.10;44.30;;;;;;5007698;28;20081;-68
2023/02/20 06:07:09;;;;;;;2.60;0.60;;;20.10;44.30;;;;;;5025606;28;20670;-67
2023/02/20 06:09:36;;;;;;;1.38;0.47;;;20.20;44.30;;;;;;5025903;28;20160;-67
2023/02/20 06:12:04;;;;;;;1.67;0.30;;;20.10;44.20;;;;;;5025215;28;20044;-67
2023/02/20 06:14:31;;;;;;;2.00;0.20;;;20.10;44.30;;;;;;5025479;28;20127;-67
2023/02/20 06:16:58;;;;;;;1.83;0.40;;;20.20;44.30;;;;;;5043168;28;20587;-67
2023/02/20 06:19:26;;;;;;;3.17;0.60;;;20.20;44.30;;;;;;5042179;28;20052;-68
2023/02/20 06:21:54;;;;;;;1.33;0.32;;;20.20;44.30;;;;;;5025502;28;20525;-68
2023/02/20 06:24:22;;;;;;;1.63;0.43;;;20.20;44.30;;;;;;5025138;28;20057;-68
2023/02/20 06:26:51;;;;;;;2.50;0.40;;;20.20;44.30;;;;;;5024915;28;20053;-68
2023/02/20 06:29:18;;;;;;;2.58;0.55;;;20.20;44.40;;;;;;5023775;28;20045;-68
2023/02/20 06:31:46;;;;;;;4.05;0.77;;;20.20;44.40;;;;;;5025395;28;20092;-68
2023/02/20 06:34:13;;;;;;;1.02;0.30;;;20.20;44.40;;;;;;5025634;28;20076;-68
2023/02/20 06:36:41;;;;;;;2.10;0.57;;;20.10;44.40;;;;;;5025213;28;20128;-69
2023/02/20 06:39:12;;;;;;;0.50;0.50;;;20.10;44.30;;;;;;5025347;28;20045;-67
2023/02/20 06:41:40;;;;;;;3.20;0.38;;;20.20;44.40;;;;;;5025129;28;20148;-67
2023/02/20 06:44:08;;;;;;;3.22;1.65;;;20.10;44.40;;;;;;5025086;28;20050;-68
2023/02/20 06:46:35;;;;;;;3.83;0.70;;;20.10;44.30;;;;;;5025230;28;20041;-68
2023/02/20 06:49:02;;;;;;;2.13;0.82;;;20.10;44.30;;;;;;5025326;28;20349;-69
2023/02/20 06:51:32;;;;;;;0.75;0.40;;;20.10;44.30;;;;;;5025522;28;20513;-69
2023/02/20 06:54:00;;;;;;;1.23;0.30;;;20.10;44.40;;;;;;5026169;28;20152;-68
2023/02/20 06:56:29;;;;;;;0.65;0.30;;;20.10;44.50;;;;;;5043483;28;20065;-68
2023/02/20 06:58:59;;;;;;;0.85;0.32;;;20.00;44.40;;;;;;5045283;28;20052;-66
2023/02/20 07:01:28;;;;;;;4.95;0.52;;;20.10;44.50;;;;;;5045073;28;20132;-67
2023/02/20 07:03:56;;;;;;;2.05;0.60;;;20.10;44.40;;;;;;5043574;28;20064;-68
2023/02/20 07:06:24;;;;;;;3.33;0.38;;;20.10;44.50;;;;;;5043785;28;20069;-67
2023/02/20 07:08:51;;;;;;;1.65;0.40;;;20.10;44.50;;;;;;5044690;28;20037;-68
2023/02/20 07:11:21;;;;;;;1.35;0.30;;;20.00;44.40;;;;;;5044635;28;20056;-68
2023/02/20 07:13:48;;;;;;;1.05;0.50;;;20.10;44.40;;;;;;5040053;28;20073;-68
2023/02/20 07:16:17;;;;;;;2.30;0.85;;;20.10;44.40;;;;;;5023611;28;20422;-67
2023/02/20 07:18:45;;;;;;;3.53;0.80;;;20.10;44.40;;;;;;5023789;28;20043;-68
2023/02/20 07:21:12;;;;;;;1.08;0.30;;;20.10;45.00;;;;;;5025130;28;20091;-68
2023/02/20 07:23:39;;;;;;;1.52;0.80;;;20.10;44.40;;;;;;5023428;28;20130;-68
2023/02/20 07:26:06;;;;;;;1.67;0.20;;;20.10;44.40;;;;;;5024613;28;20103;-68
2023/02/20 07:28:35;;;;;;;4.13;0.80;;;20.10;44.40;;;;;;5025384;28;20037;-68
2023/02/20 07:31:02;;;;;;;2.03;1.25;;;20.10;44.40;;;;;;5025173;28;20103;-68
2023/02/20 07:33:30;;;;;;;1.42;0.60;;;20.10;44.40;;;;;;5024976;28;20073;-68
2023/02/20 07:35:57;;;;;;;2.60;0.52;;;20.10;44.40;;;;;;5023411;28;20077;-68
2023/02/20 07:38:25;;;;;;;2.72;0.95;;;20.10;44.40;;;;;;5023384;28;20430;-68
2023/02/20 07:40:52;;;;;;;3.53;0.80;;;20.10;45.00;;;;;;5026592;28;20037;-68
2023/02/20 07:43:19;;;;;;;1.30;0.73;;;20.10;44.40;;;;;;5028406;28;20795;-69
2023/02/20 07:45:47;;;;;;;2.78;1.65;;;20.10;44.40;;;;;;5028380;28;20144;-67
2023/02/20 07:48:14;;;;;;;2.38;0.45;;;20.20;44.50;;;;;;5060494;28;20049;-68
2023/02/20 07:50:42;;;;;;;1.80;0.40;;;20.10;44.30;;;;;;5028394;28;20042;-68
2023/02/20 07:53:10;;;;;;;1.30;0.63;;;20.20;44.40;;;;;;5028115;28;20127;-67
2023/02/20 07:55:37;;;;;;;4.00;1.27;;;20.10;44.30;;;;;;5028305;28;20057;-66
2023/02/20 07:58:04;;;;;;;2.60;0.43;;;20.10;44.30;;;;;;5028109;28;20069;-67
2023/02/20 08:00:31;;;;;;;4.07;0.70;;;20.10;44.30;;;;;;5028307;28;20621;-67
2023/02/20 08:02:59;;;;;;;2.35;0.52;;;20.20;44.40;;;;;;5028132;28;20530;-66
2023/02/20 08:05:26;;;;;;;1.95;0.63;;;20.20;44.30;;;;;;5028408;28;20041;-67
2023/02/20 08:07:55;;;;;;;1.38;0.75;;;20.20;44.30;;;;;;5028304;28;20541;-67
2023/02/20 08:10:25;;;;;;;2.85;0.38;;;20.20;44.30;;;;;;5028319;28;20132;-67
2023/02/20 08:12:53;;;;;;;1.92;0.50;;;20.20;44.30;;;;;;5028182;28;20762;-67
2023/02/20 08:15:21;;;;;;;1.08;0.52;;;20.20;44.30;;;;;;5027652;28;20589;-67
2023/02/20 08:17:48;;;;;;;3.85;0.80;;;20.20;44.30;;;;;;5028276;28;20057;-68
2023/02/20 08:20:18;;;;;;;2.78;0.80;;;20.20;44.20;;;;;;5028070;28;20124;-66
2023/02/20 08:22:46;;;;;;;3.80;0.73;;;20.20;44.20;;;;;;5030343;28;20525;-68
2023/02/20 08:25:15;;;;;;;1.42;0.57;;;20.20;44.20;;;;;;5028152;28;20041;-67
2023/02/20 08:27:43;;;;;;;3.35;1.20;;;20.20;44.20;;;;;;5028790;28;20130;-67
2023/02/20 08:30:13;;;;;;;2.13;0.30;;;20.30;44.10;;;;;;5026957;28;20077;-67
2023/02/20 08:32:40;;;;;;;5.22;0.90;;;20.30;44.10;;;;;;5028546;28;20144;-67
2023/02/20 08:35:07;;;;;;;2.80;0.80;;;20.30;44.10;;;;;;5026347;28;20833;-68
2023/02/20 08:37:35;;;;;;;3.63;1.20;;;20.30;44.10;;;;;;5027393;28;20099;-67
2023/02/20 08:40:05;;;;;;;5.00;0.65;;;20.30;44.00;;;;;;5028764;28;20187;-67
2023/02/20 08:42:34;;;;;;;3.35;1.00;;;20.30;44.00;;;;;;5028429;28;20096;-67
2023/02/20 08:45:01;;;;;;;1.25;0.80;;;20.30;44.00;;;;;;5028300;28;20136;-70
2023/02/20 08:47:28;;;;;;;4.55;1.08;;;20.30;44.00;;;;;;5028638;28;20045;-68
2023/02/20 08:49:56;;;;;;;4.85;1.45;;;20.30;44.00;;;;;;5028294;28;20045;-68
2023/02/20 08:52:23;;;;;;;1.90;1.25;;;20.40;44.00;;;;;;5027193;28;20088;-67
2023/02/20 08:54:50;;;;;;;2.33;0.88;;;20.30;43.90;;;;;;5029087;28;20051;-67
2023/02/20 08:57:18;;;;;;;4.35;1.48;;;20.40;43.90;;;;;;5027629;28;20136;-67
2023/02/20 08:59:46;;;;;;;3.47;0.95;;;20.40;44.00;;;;;;5027597;28;20048;-67
2023/02/20 09:02:17;;;;;;;4.10;1.73;;;20.40;43.90;;;;;;5027495;28;20060;-66
2023/02/20 09:04:45;;;;;;;1.13;0.47;;;20.40;43.90;;;;;;5027020;28;20046;-67
2023/02/20 09:07:12;;;;;;;3.67;0.80;;;20.40;43.90;;;;;;5026823;28;20509;-66
2023/02/20 09:09:40;;;;;;;2.05;0.93;;;20.50;43.90;;;;;;5027006;28;20445;-67
2023/02/20 09:12:08;;;;;;;3.80;0.88;;;20.50;43.90;;;;;;5026898;28;20041;-67
2023/02/20 09:14:35;;;;;;;1.73;0.60;;;20.50;43.80;;;;;;5026888;28;20132;-67
2023/02/20 09:17:04;;;;;;;0.55;0.45;;;20.50;43.80;;;;;;5026739;28;20042;-67
2023/02/20 09:19:32;;;;;;;2.03;0.77;;;20.50;43.70;;;;;;5026838;28;20072;-67
2023/02/20 09:21:59;;;;;;;4.38;1.13;;;20.50;43.80;;;;;;5026098;28;20049;-67
2023/02/20 09:24:30;;;;;;;4.90;2.17;;;20.50;43.70;;;;;;5026451;28;20059;-66
2023/02/20 09:26:57;;;;;;;4.38;1.40;;;20.50;43.70;;;;;;5026466;28;20099;-66
2023/02/20 09:29:24;;;;;;;4.05;1.95;;;20.50;43.70;;;;;;5026493;28;20052;-67
2023/02/20 09:31:52;;;;;;;1.75;0.80;;;20.60;43.70;;;;;;5026423;28;20128;-67
2023/02/20 09:34:21;;;;;;;1.65;1.02;;;20.60;43.60;;;;;;5026549;28;20033;-67
2023/02/20 09:36:48;;;;;;;1.38;0.60;;;20.60;43.70;;;;;;5024752;28;20069;-67
2023/02/20 09:39:16;;;;;;;0.95;0.40;;;20.60;44.20;;;;;;5026193;28;20041;-67
2023/02/20 09:41:58;;;;;;;1.33;1.23;;;20.60;43.60;;;;;;5026443;28;20517;-67
2023/02/20 09:44:32;;;;;;;1.65;0.43;;;20.60;43.60;;;;;;5024765;28;20049;-68
2023/02/20 09:47:07;;;;;;;4.10;1.60;;;20.60;43.60;;;;;;5026667;28;20071;-67
2023/02/20 09:49:38;;;;;;;1.50;1.15;;;20.60;43.50;;;;;;5024753;28;20052;-68
2023/02/20 09:52:13;;;;;;;3.92;1.98;;;20.60;43.60;;;;;;5026720;28;20129;-68
2023/02/20 09:54:43;;;;;;;1.95;1.15;;;20.60;43.50;;;;;;5026360;28;20056;-67
2023/02/20 09:57:14;;;;;;;5.35;1.88;;;20.60;43.50;;;;;;5034660;28;20037;-68
2023/02/20 09:59:46;;;;;;;2.58;1.52;;;20.70;43.50;;;;;;5046529;28;20044;-67
2023/02/20 10:02:17;;;;;;;6.85;3.30;;;20.70;43.50;;;;;;5046529;28;20045;-68
2023/02/20 10:04:49;;;;;;;4.57;2.05;;;20.70;43.50;;;;;;5045816;28;20524;-67
2023/02/20 10:07:24;;;;;;;1.33;1.20;;;20.70;43.50;;;;;;5046608;28;20045;-68
2023/02/20 10:09:52;;;;;;;5.40;1.77;;;20.70;43.50;;;;;;5046337;28;20041;-68
2023/02/20 10:12:25;;;;;;;3.70;1.02;;;20.70;43.50;;;;;;5046086;28;20075;-68
2023/02/20 10:15:11;;;;;;;7.40;1.73;;;20.70;43.50;;;;;;5032822;28;20050;-68
2023/02/20 10:17:47;;;;;;;2.42;1.52;;;20.70;44.10;;;;;;5026117;28;20053;-68
2023/02/20 10:20:23;;;;;;;2.78;2.15;;;20.70;43.50;;;;;;5057666;28;20274;-68
2023/02/20 10:22:56;;;;;;;4.97;1.57;;;20.80;43.60;;;;;;5035828;28;20037;-68
2023/02/20 10:25:30;;;;;;;5.55;1.13;;;20.80;43.50;;;;;;5037167;28;20049;-68
2023/02/20 10:28:04;;;;;;;2.10;1.25;;;20.80;43.50;;;;;;5025897;28;20791;-68
2023/02/20 10:30:33;;;;;;;4.00;0.73;;;20.80;43.50;;;;;;5025970;28;20081;-68
2023/02/20 10:33:11;;;;;;;2.25;0.95;;;20.80;43.50;;;;;;5025696;28;20099;-68
2023/02/20 10:35:44;;;;;;;4.85;1.23;;;20.80;43.50;;;;;;5025841;28;20510;-68
2023/02/20 10:38:15;;;;;;;3.42;0.80;;;20.80;43.50;;;;;;5025935;28;20053;-68
2023/02/20 10:40:47;;;;;;;3.80;0.68;;;20.80;43.50;;;;;;5026319;28;20469;-68
2023/02/20 10:43:19;;;;;;;3.63;0.95;;;20.90;43.50;;;;;;5025942;28;20498;-68
2023/02/20 10:45:54;;;;;;;1.67;0.68;;;20.90;43.50;;;;;;5025693;28;20123;-68
2023/02/20 10:48:24;;;;;;;1.85;1.27;;;20.90;43.50;;;;;;5025530;28;20468;-67
2023/02/20 10:51:03;;;;;;;2.60;0.75;;;20.90;43.50;;;;;;5025873;28;20076;-68
2023/02/20 10:53:37;;;;;;;3.10;0.80;;;20.90;43.40;;;;;;5025797;28;20042;-68
2023/02/20 10:56:10;;;;;;;3.92;1.35;;;21.00;43.50;;;;;;5024686;28;20049;-68
2023/02/20 10:58:42;;;;;;;1.70;0.25;;;21.00;43.50;;;;;;5024205;28;20049;-67
2023/02/20 11:01:12;;;;;;;1.77;0.60;;;21.00;43.50;;;;;;5026987;28;20091;-67
2023/02/20 11:03:47;;;;;;;1.92;0.93;;;21.00;43.50;;;;;;5025390;28;20037;-67
2023/02/20 11:06:18;;;;;;;2.17;0.75;;;21.10;43.60;;;;;;5025859;28;20579;-66
2023/02/20 11:08:46;;;;;;;1.67;0.85;;;21.10;43.60;;;;;;5025581;28;20052;-67
2023/02/20 11:11:23;;;;;;;3.03;0.65;;;21.10;43.60;;;;;;5025969;28;20080;-67
2023/02/20 11:13:50;;;;;;;3.45;0.98;;;21.10;43.60;;;;;;5021093;28;20131;-66
2023/02/20 11:16:29;;;;;;;3.50;1.13;;;21.20;43.60;;;;;;5008824;28;20075;-67
2023/02/20 11:19:04;;;;;;;4.05;1.10;;;21.20;43.50;;;;;;5009607;28;20112;-66
2023/02/20 11:21:39;;;;;;;1.75;0.60;;;21.30;43.70;;;;;;5009672;28;20127;-68
2023/02/20 11:24:40;;;;;;;0.70;0.47;;;21.30;43.70;;;;;;5009783;28;20601;-69
2023/02/20 11:27:13;;;;;;;1.27;0.38;;;21.30;43.60;;;;;;4986949;28;20129;-67
2023/02/20 11:29:53;;;;;;;1.52;0.40;;;21.30;43.60;;;;;;4987045;28;20053;-67
2023/02/20 11:32:34;;;;;;;3.03;0.52;;;21.30;43.60;;;;;;4986639;28;20061;-67
2023/02/20 11:35:22;;;;;;;4.20;0.80;;;21.40;43.60;;;;;;4987053;28;20047;-68
2023/02/20 11:38:12;;;;;;;1.40;0.68;;;21.40;43.50;;;;;;4986998;28;20081;-68
2023/02/20 11:40:39;;;;;;;0.98;0.35;;;21.40;43.50;;;;;;4986597;28;20126;-68
2023/02/20 11:43:11;;;;;;;1.60;0.47;;;21.40;43.50;;;;;;4987417;28;20606;-68
2023/02/20 11:45:38;;;;;;;1.27;1.27;;;21.50;43.50;;;;;;4989489;28;20073;-67
2023/02/20 11:48:10;;;;;;;1.15;0.50;;;21.50;43.50;;;;;;4990298;28;20045;-67
2023/02/20 11:50:39;;;;;;;1.17;0.70;;;21.50;43.50;;;;;;5006464;28;20144;-68
2023/02/20 11:53:19;;;;;;;1.45;0.98;;;21.60;43.50;;;;;;5006244;28;20062;-68
2023/02/20 11:55:47;;;;;;;1.50;0.50;;;21.60;43.40;;;;;;4989765;28;20093;-67
2023/02/20 11:58:23;;;;;;;2.28;0.68;;;21.60;43.50;;;;;;5019191;28;20053;-67
2023/02/20 12:00:52;;;;;;;1.42;0.30;;;21.70;43.50;;;;;;5026957;28;20053;-67
2023/02/20 12:03:23;;;;;;;1.95;0.50;;;21.70;43.50;;;;;;5028325;28;20132;-67
2023/02/20 12:05:51;;;;;;;1.05;0.95;;;21.80;43.50;;;;;;5028032;28;20064;-66
2023/02/20 12:08:34;;;;;;;8.05;3.20;;;21.80;43.50;;;;;;5031105;28;20244;-67
2023/02/20 12:11:06;;;;;;;3.78;2.58;;;21.80;42.10;;;;;;5034914;28;20132;-61
2023/02/20 12:13:37;;;;;;;7.53;3.42;;;21.90;41.00;;;;;;5025541;28;20038;-62
2023/02/20 12:16:21;;;;;;;5.25;2.67;;;21.80;40.10;;;;;;5027592;28;20034;-62
2023/02/20 12:18:54;;;;;;;6.50;3.20;;;21.80;39.60;;;;;;5028031;28;20117;-62
2023/02/20 12:21:36;;;;;;;7.90;3.75;;;21.80;39.50;;;;;;5027545;28;20050;-63
2023/02/20 12:24:17;;;;;;;5.95;3.42;;;21.80;39.30;;;;;;5027395;28;20080;-63
2023/02/20 12:26:52;;;;;;;5.22;4.07;;;21.70;39.10;;;;;;5026864;28;20128;-61
2023/02/20 12:29:28;;;;;;;4.85;2.95;;;21.70;39.00;;;;;;5027183;28;20051;-62
2023/02/20 12:32:12;;;;;;;4.70;2.92;;;21.70;38.80;;;;;;5029306;28;20053;-62
2023/02/20 12:34:58;;;;;;;10.02;2.60;;;21.70;38.70;;;;;;5047489;28;20106;-62
2023/02/20 12:37:38;;;;;;;6.80;2.50;;;21.70;39.00;;;;;;5047536;28;20072;-62
2023/02/20 12:40:28;;;;;;;5.13;3.30;;;21.60;38.60;;;;;;5047190;28;20045;-62
2023/02/20 12:43:00;;;;;;;4.20;2.03;;;21.60;38.50;;;;;;5047214;28;20132;-64
2023/02/20 12:45:33;;;;;;;6.05;2.10;;;21.60;38.60;;;;;;5029246;28;20045;-64
2023/02/20 12:48:17;;;;;;;4.38;1.63;;;21.60;38.50;;;;;;5027994;28;20157;-64
2023/02/20 12:50:59;;;;;;;1.63;1.08;;;21.60;38.50;;;;;;5027345;28;20052;-64
2023/02/20 12:53:49;;;;;;;4.90;1.00;;;21.60;38.50;;;;;;5027694;28;20052;-64
2023/02/20 12:56:29;;;;;;;2.08;0.73;;;21.60;38.50;;;;;;5027587;28;20049;-64
2023/02/20 12:59:04;;;;;;;2.05;0.88;;;21.60;38.60;;;;;;5028981;28;20049;-64
2023/02/20 13:01:33;;;;;;;5.35;1.15;;;21.60;38.50;;;;;;5025952;28;20052;-64
2023/02/20 13:04:06;;;;;;;2.95;1.05;;;21.60;38.50;;;;;;5013801;28;20050;-63
2023/02/20 13:06:36;;;;;;;3.90;1.20;;;21.60;38.50;;;;;;5007188;28;20054;-63
2023/02/20 13:09:17;;;;;;;2.72;0.95;;;21.60;38.50;;;;;;5007241;28;20148;-64
2023/02/20 13:11:50;;;;;;;2.85;1.13;;;21.60;38.50;;;;;;5007019;28;20049;-65
2023/02/20 13:14:30;;;;;;;4.63;1.42;;;21.60;38.50;;;;;;5015018;28;20229;-67
2023/02/20 13:17:08;;;;;;;1.27;0.52;;;21.60;38.80;;;;;;5023725;28;20066;-64
2023/02/20 13:19:40;;;;;;;2.72;1.00;;;21.60;38.90;;;;;;5025432;28;20053;-69
2023/02/20 13:22:07;;;;;;;2.42;1.45;;;21.60;38.80;;;;;;5026913;28;20561;-67